createdAt,value
2022-08-26T00:00:34.516Z,11.70
2022-08-26T00:01:35.228Z,10.70
2022-08-26T00:02:34.392Z,11.50
2022-08-26T00:03:34.292Z,10.50
2022-08-26T00:04:34.223Z,10.20
2022-08-26T00:05:34.172Z,11.10
2022-08-26T00:06:34.124Z,12.90
2022-08-26T00:07:34.049Z,11.10
2022-08-26T00:08:33.955Z,11.20
2022-08-26T00:09:33.920Z,11.30
2022-08-26T00:10:33.878Z,10.80
2022-08-26T00:11:33.768Z,11.00
2022-08-26T00:12:37.435Z,10.30
2022-08-26T00:13:33.669Z,11.10
2022-08-26T00:14:33.581Z,11.10
2022-08-26T00:15:33.549Z,11.30
2022-08-26T00:16:33.513Z,11.70
2022-08-26T00:17:33.400Z,11.10
2022-08-26T00:18:33.330Z,10.90
2022-08-26T00:19:33.288Z,9.80
2022-08-26T00:20:33.191Z,9.90
2022-08-26T00:21:33.141Z,10.40
2022-08-26T00:22:33.061Z,9.30
2022-08-26T00:23:33.018Z,10.00
2022-08-26T00:24:32.949Z,10.30
2022-08-26T00:25:34.361Z,9.40
2022-08-26T00:26:32.818Z,8.30
2022-08-26T00:27:32.742Z,9.60
2022-08-26T00:28:32.701Z,9.90
2022-08-26T00:29:35.535Z,10.00
2022-08-26T00:30:32.576Z,11.00
2022-08-26T00:31:33.340Z,10.50
2022-08-26T00:32:32.439Z,11.30
2022-08-26T00:33:32.357Z,11.60
2022-08-26T00:34:32.305Z,10.50
2022-08-26T00:35:32.265Z,11.90
2022-08-26T00:36:32.170Z,10.70
2022-08-26T00:37:32.131Z,10.50
2022-08-26T00:38:32.038Z,10.80
2022-08-26T00:39:31.975Z,10.60
2022-08-26T00:40:31.970Z,9.60
2022-08-26T00:41:31.867Z,10.50
2022-08-26T00:42:31.801Z,10.10
2022-08-26T00:43:31.741Z,9.30
2022-08-26T00:44:31.664Z,9.80
2022-08-26T00:45:31.649Z,10.10
2022-08-26T00:46:31.598Z,10.60
2022-08-26T00:47:31.476Z,10.90
2022-08-26T00:48:31.869Z,10.30
2022-08-26T00:49:32.119Z,10.80
2022-08-26T00:50:31.283Z,11.50
2022-08-26T00:51:31.248Z,10.60
2022-08-26T00:52:31.172Z,10.50
2022-08-26T00:53:31.082Z,11.60
2022-08-26T00:54:31.034Z,12.00
2022-08-26T00:55:37.840Z,12.40
2022-08-26T00:56:30.941Z,12.80
2022-08-26T00:57:30.831Z,14.00
2022-08-26T00:58:30.782Z,12.20
2022-08-26T00:59:32.651Z,12.90
2022-08-26T01:00:30.649Z,15.40
2022-08-26T01:01:30.652Z,14.30
2022-08-26T01:02:30.560Z,14.00
2022-08-26T01:03:30.438Z,14.10
2022-08-26T01:04:30.407Z,13.80
2022-08-26T01:05:30.329Z,14.90
2022-08-26T01:06:30.287Z,15.10
2022-08-26T01:07:31.334Z,16.40
2022-08-26T01:08:30.162Z,17.80
2022-08-26T01:09:30.072Z,15.30
2022-08-26T01:10:29.995Z,14.20
2022-08-26T01:11:29.935Z,13.30
2022-08-26T01:12:29.925Z,12.40
2022-08-26T01:13:29.815Z,13.50
2022-08-26T01:14:29.773Z,12.10
2022-08-26T01:15:29.784Z,10.80
2022-08-26T01:16:29.664Z,11.00
2022-08-26T01:17:29.547Z,12.50
2022-08-26T01:18:29.528Z,12.10
2022-08-26T01:19:30.219Z,12.90
2022-08-26T01:20:29.358Z,12.50
2022-08-26T01:21:29.399Z,13.20
2022-08-26T01:22:29.238Z,13.10
2022-08-26T01:23:29.179Z,13.90
2022-08-26T01:24:29.096Z,12.00
2022-08-26T01:25:29.818Z,14.30
2022-08-26T01:26:28.975Z,13.50
2022-08-26T01:27:28.918Z,14.30
2022-08-26T01:28:28.846Z,14.60
2022-08-26T01:29:28.810Z,15.30
2022-08-26T01:30:28.730Z,14.30
2022-08-26T01:31:31.802Z,15.70
2022-08-26T01:32:28.592Z,13.80
2022-08-26T01:33:28.521Z,14.70
2022-08-26T01:34:28.477Z,14.90
2022-08-26T01:35:28.392Z,14.90
2022-08-26T01:36:28.347Z,14.30
2022-08-26T01:37:28.311Z,15.80
2022-08-26T01:38:28.216Z,15.00
2022-08-26T01:39:28.168Z,15.60
2022-08-26T01:40:28.139Z,14.80
2022-08-26T01:41:29.091Z,14.50
2022-08-26T01:42:28.503Z,15.10
2022-08-26T01:43:29.499Z,14.10
2022-08-26T01:44:27.823Z,14.50
2022-08-26T01:45:27.810Z,16.20
2022-08-26T01:46:27.697Z,14.20
2022-08-26T01:47:27.635Z,15.00
2022-08-26T01:48:27.566Z,14.60
2022-08-26T01:49:27.523Z,14.00
2022-08-26T01:50:27.451Z,14.60
2022-08-26T01:51:27.415Z,14.80
2022-08-26T01:52:28.030Z,14.80
2022-08-26T01:53:27.270Z,14.60
2022-08-26T01:54:27.177Z,15.40
2022-08-26T01:55:32.297Z,14.30
2022-08-26T01:56:33.056Z,14.70
2022-08-26T01:57:26.965Z,13.70
2022-08-26T01:58:26.933Z,15.00
2022-08-26T01:59:26.872Z,15.00
2022-08-26T02:00:26.796Z,14.20
2022-08-26T02:01:29.186Z,14.60
2022-08-26T02:02:26.676Z,14.60
2022-08-26T02:03:26.690Z,15.10
2022-08-26T02:04:26.654Z,14.50
2022-08-26T02:05:26.487Z,14.30
2022-08-26T02:06:26.420Z,14.60
2022-08-26T02:07:26.841Z,15.70
2022-08-26T02:08:26.278Z,14.70
2022-08-26T02:09:26.255Z,14.60
2022-08-26T02:10:26.167Z,14.30
2022-08-26T02:11:26.086Z,13.70
2022-08-26T02:12:26.057Z,15.10
2022-08-26T02:13:26.763Z,14.30
2022-08-26T02:14:26.789Z,13.70
2022-08-26T02:15:25.846Z,13.90
2022-08-26T02:16:25.826Z,11.60
2022-08-26T02:17:25.705Z,13.90
2022-08-26T02:18:25.670Z,13.30
2022-08-26T02:19:25.586Z,13.20
2022-08-26T02:20:26.546Z,12.60
2022-08-26T02:21:25.455Z,12.90
2022-08-26T02:22:25.399Z,12.90
2022-08-26T02:23:25.329Z,13.40
2022-08-26T02:24:27.353Z,12.60
2022-08-26T02:25:25.219Z,13.80
2022-08-26T02:26:25.169Z,13.20
2022-08-26T02:27:25.077Z,12.40
2022-08-26T02:28:26.627Z,13.20
2022-08-26T02:29:24.953Z,12.40
2022-08-26T02:30:24.866Z,12.80
2022-08-26T02:31:24.892Z,13.10
2022-08-26T02:32:24.750Z,12.70
2022-08-26T02:33:24.673Z,14.00
2022-08-26T02:34:24.607Z,12.90
2022-08-26T02:35:24.556Z,12.70
2022-08-26T02:36:24.504Z,13.40
2022-08-26T02:37:24.448Z,13.10
2022-08-26T02:38:24.390Z,14.00
2022-08-26T02:39:24.288Z,14.90
2022-08-26T02:40:24.281Z,13.70
2022-08-26T02:41:24.180Z,14.40
2022-08-26T02:42:24.133Z,14.20
2022-08-26T02:43:31.252Z,13.60
2022-08-26T02:44:23.988Z,14.50
2022-08-26T02:45:23.912Z,13.70
2022-08-26T02:46:27.861Z,13.60
2022-08-26T02:47:24.747Z,13.00
2022-08-26T02:48:23.715Z,12.10
2022-08-26T02:49:23.709Z,12.50
2022-08-26T02:50:23.598Z,11.60
2022-08-26T02:51:23.536Z,12.30
2022-08-26T02:52:23.479Z,12.70
2022-08-26T02:53:25.426Z,11.60
2022-08-26T02:54:23.341Z,12.00
2022-08-26T02:55:24.781Z,12.20
2022-08-26T02:56:23.215Z,12.10
2022-08-26T02:57:23.133Z,12.20
2022-08-26T02:58:23.116Z,11.60
2022-08-26T02:59:24.370Z,11.50
2022-08-26T03:00:22.981Z,11.30
2022-08-26T03:01:22.983Z,11.90
2022-08-26T03:02:22.897Z,12.80
2022-08-26T03:03:23.702Z,11.50
2022-08-26T03:04:22.704Z,11.70
2022-08-26T03:05:23.975Z,11.90
2022-08-26T03:06:22.566Z,12.00
2022-08-26T03:07:22.506Z,12.80
2022-08-26T03:08:22.433Z,12.80
2022-08-26T03:09:22.381Z,12.40
2022-08-26T03:10:22.315Z,11.40
2022-08-26T03:11:22.235Z,12.40
2022-08-26T03:12:22.193Z,11.60
2022-08-26T03:13:22.890Z,13.20
2022-08-26T03:14:22.039Z,12.00
2022-08-26T03:15:21.994Z,12.60
2022-08-26T03:16:22.015Z,11.80
2022-08-26T03:17:21.882Z,12.00
2022-08-26T03:18:21.789Z,11.70
2022-08-26T03:19:22.518Z,11.10
2022-08-26T03:20:21.654Z,12.00
2022-08-26T03:21:21.601Z,13.20
2022-08-26T03:22:21.546Z,13.80
2022-08-26T03:23:21.472Z,12.10
2022-08-26T03:24:21.416Z,11.50
2022-08-26T03:25:21.355Z,12.30
2022-08-26T03:26:21.265Z,12.60
2022-08-26T03:27:21.205Z,11.90
2022-08-26T03:28:21.143Z,13.00
2022-08-26T03:29:21.106Z,12.00
2022-08-26T03:30:21.055Z,12.10
2022-08-26T03:31:21.795Z,12.70
2022-08-26T03:32:20.892Z,11.90
2022-08-26T03:33:20.830Z,12.90
2022-08-26T03:34:20.762Z,12.10
2022-08-26T03:35:22.452Z,13.50
2022-08-26T03:36:20.681Z,13.00
2022-08-26T03:37:20.591Z,12.40
2022-08-26T03:38:20.506Z,12.70
2022-08-26T03:39:20.448Z,12.90
2022-08-26T03:40:20.584Z,12.40
2022-08-26T03:41:20.314Z,14.00
2022-08-26T03:42:21.507Z,12.80
2022-08-26T03:43:21.400Z,13.60
2022-08-26T03:44:20.110Z,13.30
2022-08-26T03:45:20.051Z,12.20
2022-08-26T03:46:20.093Z,12.70
2022-08-26T03:47:19.915Z,14.40
2022-08-26T03:48:19.869Z,13.00
2022-08-26T03:49:20.992Z,12.90
2022-08-26T03:50:23.000Z,13.40
2022-08-26T03:51:19.662Z,13.70
2022-08-26T03:52:19.641Z,12.40
2022-08-26T03:53:20.568Z,12.20
2022-08-26T03:54:19.429Z,12.90
2022-08-26T03:55:19.390Z,12.70
2022-08-26T03:56:19.381Z,14.30
2022-08-26T03:57:19.304Z,13.60
2022-08-26T03:58:19.168Z,13.50
2022-08-26T03:59:19.111Z,13.40
2022-08-26T04:00:19.045Z,13.40
2022-08-26T04:01:19.128Z,14.50
2022-08-26T04:02:18.924Z,13.50
2022-08-26T04:03:19.236Z,13.10
2022-08-26T04:04:18.795Z,13.50
2022-08-26T04:05:18.707Z,12.50
2022-08-26T04:06:18.707Z,13.50
2022-08-26T04:07:19.797Z,13.20
2022-08-26T04:08:18.509Z,12.90
2022-08-26T04:09:18.456Z,13.20
2022-08-26T04:10:20.094Z,13.30
2022-08-26T04:11:18.321Z,13.40
2022-08-26T04:12:18.269Z,13.30
2022-08-26T04:13:18.214Z,12.70
2022-08-26T04:14:20.151Z,13.60
2022-08-26T04:15:18.058Z,13.90
2022-08-26T04:16:18.049Z,14.70
2022-08-26T04:17:17.940Z,13.90
2022-08-26T04:18:17.881Z,14.30
2022-08-26T04:19:17.830Z,14.60
2022-08-26T04:20:17.733Z,13.30
2022-08-26T04:21:17.702Z,14.40
2022-08-26T04:22:24.079Z,14.90
2022-08-26T04:23:17.555Z,14.80
2022-08-26T04:24:17.600Z,14.80
2022-08-26T04:25:17.443Z,15.00
2022-08-26T04:26:17.348Z,14.20
2022-08-26T04:27:17.303Z,14.60
2022-08-26T04:28:17.245Z,15.40
2022-08-26T04:29:17.201Z,16.00
2022-08-26T04:30:17.101Z,17.50
2022-08-26T04:31:18.289Z,17.40
2022-08-26T04:32:16.976Z,17.90
2022-08-26T04:33:16.915Z,18.40
2022-08-26T04:34:16.850Z,19.10
2022-08-26T04:35:16.768Z,19.80
2022-08-26T04:36:16.725Z,18.20
2022-08-26T04:37:16.702Z,18.50
2022-08-26T04:38:16.590Z,19.40
2022-08-26T04:39:16.534Z,18.00
2022-08-26T04:40:16.520Z,18.40
2022-08-26T04:41:16.962Z,18.30
2022-08-26T04:42:18.902Z,16.70
2022-08-26T04:43:17.056Z,15.80
2022-08-26T04:44:16.220Z,16.90
2022-08-26T04:45:16.134Z,16.00
2022-08-26T04:46:16.104Z,15.80
2022-08-26T04:47:16.015Z,16.00
2022-08-26T04:48:16.740Z,16.60
2022-08-26T04:49:23.030Z,17.00
2022-08-26T04:50:15.823Z,16.50
2022-08-26T04:51:15.747Z,15.70
2022-08-26T04:52:15.683Z,15.60
2022-08-26T04:53:15.642Z,16.20
2022-08-26T04:54:16.378Z,14.50
2022-08-26T04:55:15.532Z,15.00
2022-08-26T04:56:15.411Z,13.70
2022-08-26T04:57:15.367Z,15.00
2022-08-26T04:58:15.303Z,15.70
2022-08-26T04:59:17.221Z,13.90
2022-08-26T05:00:15.156Z,14.10
2022-08-26T05:01:15.167Z,15.30
2022-08-26T05:02:15.024Z,14.20
2022-08-26T05:03:14.986Z,13.90
2022-08-26T05:04:16.340Z,14.30
2022-08-26T05:05:14.851Z,14.50
2022-08-26T05:06:14.768Z,13.70
2022-08-26T05:07:14.721Z,14.70
2022-08-26T05:08:14.637Z,14.60
2022-08-26T05:09:14.590Z,15.00
2022-08-26T05:10:14.527Z,15.30
2022-08-26T05:11:14.443Z,14.90
2022-08-26T05:12:14.395Z,14.70
2022-08-26T05:13:15.891Z,15.10
2022-08-26T05:14:14.269Z,14.30
2022-08-26T05:15:14.191Z,14.90
2022-08-26T05:16:14.156Z,15.80
2022-08-26T05:17:15.017Z,14.70
2022-08-26T05:18:14.013Z,14.70
2022-08-26T05:19:13.953Z,14.50
2022-08-26T05:20:13.877Z,14.90
2022-08-26T05:21:13.811Z,14.00
2022-08-26T05:22:13.762Z,14.80
2022-08-26T05:23:13.669Z,15.90
2022-08-26T05:24:13.624Z,16.30
2022-08-26T05:25:13.551Z,14.40
2022-08-26T05:26:13.489Z,14.50
2022-08-26T05:27:13.436Z,14.80
2022-08-26T05:28:13.352Z,14.60
2022-08-26T05:29:13.286Z,14.00
2022-08-26T05:30:13.218Z,14.80
2022-08-26T05:31:15.176Z,15.80
2022-08-26T05:32:13.089Z,15.50
2022-08-26T05:33:13.035Z,14.50
2022-08-26T05:34:12.977Z,14.60
2022-08-26T05:35:12.894Z,14.90
2022-08-26T05:36:12.846Z,15.10
2022-08-26T05:37:13.627Z,13.70
2022-08-26T05:38:13.029Z,13.40
2022-08-26T05:39:12.651Z,14.90
2022-08-26T05:40:12.629Z,13.40
2022-08-26T05:41:12.513Z,14.30
2022-08-26T05:42:12.446Z,14.80
2022-08-26T05:43:12.408Z,15.40
2022-08-26T05:44:12.327Z,14.60
2022-08-26T05:45:12.265Z,15.30
2022-08-26T05:46:12.287Z,15.30
2022-08-26T05:47:12.123Z,14.10
2022-08-26T05:48:12.063Z,16.20
2022-08-26T05:49:12.513Z,15.10
2022-08-26T05:50:11.956Z,15.60
2022-08-26T05:51:11.879Z,15.70
2022-08-26T05:52:11.801Z,16.30
2022-08-26T05:53:11.750Z,15.20
2022-08-26T05:54:11.681Z,15.70
2022-08-26T05:55:13.140Z,15.10
2022-08-26T05:56:11.552Z,15.80
2022-08-26T05:57:11.495Z,15.00
2022-08-26T05:58:11.429Z,15.00
2022-08-26T05:59:14.239Z,16.20
2022-08-26T06:00:11.332Z,15.40
2022-08-26T06:01:11.278Z,16.20
2022-08-26T06:02:11.159Z,15.90
2022-08-26T06:03:11.446Z,15.40
2022-08-26T06:04:11.024Z,15.20
2022-08-26T06:05:10.981Z,14.20
2022-08-26T06:06:10.914Z,13.60
2022-08-26T06:07:12.397Z,13.40
2022-08-26T06:08:10.789Z,14.40
2022-08-26T06:09:11.201Z,14.30
2022-08-26T06:10:31.044Z,14.10
2022-08-26T06:11:18.247Z,14.70
2022-08-26T06:12:10.556Z,14.10
2022-08-26T06:13:12.115Z,14.30
2022-08-26T06:14:10.405Z,14.00
2022-08-26T06:15:10.325Z,13.20
2022-08-26T06:16:10.391Z,13.90
2022-08-26T06:17:10.205Z,13.40
2022-08-26T06:18:10.145Z,14.10
2022-08-26T06:19:11.630Z,13.20
2022-08-26T06:20:10.040Z,14.60
2022-08-26T06:21:09.941Z,13.70
2022-08-26T06:22:09.898Z,14.00
2022-08-26T06:23:10.043Z,14.20
2022-08-26T06:24:09.761Z,14.30
2022-08-26T06:25:09.893Z,13.80
2022-08-26T06:26:09.637Z,14.40
2022-08-26T06:27:09.550Z,13.10
2022-08-26T06:28:09.492Z,13.70
2022-08-26T06:29:09.434Z,14.00
2022-08-26T06:30:09.366Z,13.50
2022-08-26T06:31:11.390Z,13.10
2022-08-26T06:32:09.243Z,14.30
2022-08-26T06:33:09.390Z,13.80
2022-08-26T06:34:10.910Z,14.10
2022-08-26T06:35:12.147Z,15.20
2022-08-26T06:36:08.998Z,13.90
2022-08-26T06:37:08.961Z,14.80
2022-08-26T06:38:08.915Z,13.70
2022-08-26T06:39:09.363Z,13.10
2022-08-26T06:40:08.855Z,13.60
2022-08-26T06:41:08.662Z,13.80
2022-08-26T06:42:08.599Z,14.50
2022-08-26T06:43:09.688Z,14.10
2022-08-26T06:44:08.476Z,13.60
2022-08-26T06:45:08.426Z,14.40
2022-08-26T06:46:08.430Z,13.40
2022-08-26T06:47:08.331Z,14.00
2022-08-26T06:48:08.946Z,15.00
2022-08-26T06:49:08.237Z,14.30
2022-08-26T06:50:08.127Z,13.60
2022-08-26T06:51:08.077Z,15.50
2022-08-26T06:52:08.024Z,13.30
2022-08-26T06:53:08.113Z,13.20
2022-08-26T06:54:07.872Z,13.80
2022-08-26T06:55:07.814Z,13.50
2022-08-26T06:56:07.723Z,14.20
2022-08-26T06:57:07.666Z,14.30
2022-08-26T06:58:07.639Z,14.70
2022-08-26T06:59:07.679Z,14.70
2022-08-26T07:00:07.486Z,14.00
2022-08-26T07:01:11.656Z,13.40
2022-08-26T07:02:07.430Z,13.40
2022-08-26T07:03:07.566Z,13.90
2022-08-26T07:04:07.917Z,13.50
2022-08-26T07:05:07.151Z,14.10
2022-08-26T07:06:07.113Z,12.40
2022-08-26T07:07:07.059Z,13.30
2022-08-26T07:08:06.991Z,13.30
2022-08-26T07:09:06.901Z,13.80
2022-08-26T07:10:06.884Z,12.90
2022-08-26T07:11:06.795Z,13.30
2022-08-26T07:12:06.912Z,12.80
2022-08-26T07:13:06.891Z,14.00
2022-08-26T07:14:06.610Z,13.10
2022-08-26T07:15:06.551Z,13.40
2022-08-26T07:16:06.771Z,13.50
2022-08-26T07:17:07.319Z,13.20
2022-08-26T07:18:06.587Z,14.00
2022-08-26T07:19:11.138Z,13.20
2022-08-26T07:20:10.957Z,12.70
2022-08-26T07:21:07.304Z,13.20
2022-08-26T07:22:08.654Z,12.60
2022-08-26T07:23:12.450Z,12.80
2022-08-26T07:24:08.950Z,12.50
2022-08-26T07:25:08.199Z,13.70
2022-08-26T07:26:05.841Z,13.80
2022-08-26T07:27:05.996Z,13.10
2022-08-26T07:28:05.720Z,13.00
2022-08-26T07:29:05.667Z,13.00
2022-08-26T07:30:05.592Z,14.00
2022-08-26T07:31:05.588Z,12.90
2022-08-26T07:32:05.509Z,12.50
2022-08-26T07:33:05.498Z,12.40
2022-08-26T07:34:05.357Z,12.60
2022-08-26T07:35:05.322Z,13.20
2022-08-26T07:36:05.212Z,12.50
2022-08-26T07:37:05.170Z,13.30
2022-08-26T07:38:05.092Z,14.00
2022-08-26T07:39:05.034Z,12.50
2022-08-26T07:40:05.007Z,12.30
2022-08-26T07:41:04.915Z,12.70
2022-08-26T07:42:08.027Z,12.70
2022-08-26T07:43:05.988Z,12.50
2022-08-26T07:44:04.717Z,13.10
2022-08-26T07:45:04.673Z,12.60
2022-08-26T07:46:04.587Z,12.10
2022-08-26T07:47:10.058Z,12.60
2022-08-26T07:48:04.493Z,12.00
2022-08-26T07:49:04.566Z,12.00
2022-08-26T07:50:04.359Z,12.30
2022-08-26T07:51:04.300Z,11.70
2022-08-26T07:52:04.223Z,12.60
2022-08-26T07:53:04.185Z,11.30
2022-08-26T07:54:04.096Z,11.90
2022-08-26T07:55:04.060Z,11.60
2022-08-26T07:56:03.985Z,11.70
2022-08-26T07:57:08.320Z,10.70
2022-08-26T07:58:03.872Z,10.50
2022-08-26T07:59:03.810Z,11.60
2022-08-26T08:00:03.748Z,11.00
2022-08-26T08:01:04.925Z,11.40
2022-08-26T08:02:03.615Z,11.10
2022-08-26T08:03:03.545Z,11.50
2022-08-26T08:04:03.503Z,11.00
2022-08-26T08:05:03.521Z,10.80
2022-08-26T08:06:03.360Z,11.60
2022-08-26T08:07:03.596Z,11.00
2022-08-26T08:08:26.365Z,11.30
2022-08-26T08:09:03.191Z,11.00
2022-08-26T08:10:07.837Z,11.80
2022-08-26T08:11:03.092Z,11.10
2022-08-26T08:12:02.987Z,11.10
2022-08-26T08:13:03.004Z,12.80
2022-08-26T08:14:02.902Z,11.50
2022-08-26T08:15:02.851Z,11.40
2022-08-26T08:16:02.754Z,11.20
2022-08-26T08:17:02.861Z,11.10
2022-08-26T08:18:02.671Z,11.60
2022-08-26T08:19:02.586Z,11.90
2022-08-26T08:20:02.491Z,12.00
2022-08-26T08:21:19.963Z,12.00
2022-08-26T08:22:02.387Z,12.00
2022-08-26T08:23:02.315Z,11.60
2022-08-26T08:24:02.284Z,12.40
2022-08-26T08:25:02.984Z,11.80
2022-08-26T08:26:02.123Z,11.60
2022-08-26T08:27:02.106Z,12.00
2022-08-26T08:28:03.047Z,11.80
2022-08-26T08:29:04.996Z,12.40
2022-08-26T08:30:02.155Z,12.40
2022-08-26T08:31:01.905Z,12.30
2022-08-26T08:32:01.811Z,13.70
2022-08-26T08:33:01.679Z,12.30
2022-08-26T08:34:01.622Z,11.30
2022-08-26T08:35:01.629Z,11.10
2022-08-26T08:36:01.536Z,11.00
2022-08-26T08:37:01.460Z,10.70
2022-08-26T08:38:01.766Z,9.90
2022-08-26T08:39:01.332Z,11.80
2022-08-26T08:40:01.333Z,10.20
2022-08-26T08:41:01.207Z,10.50
2022-08-26T08:42:01.981Z,9.90
2022-08-26T08:43:01.849Z,9.90
2022-08-26T08:44:01.019Z,11.30
2022-08-26T08:45:00.974Z,10.70
2022-08-26T08:46:00.939Z,10.10
2022-08-26T08:47:00.822Z,9.90
2022-08-26T08:48:00.765Z,10.00
2022-08-26T08:49:00.727Z,9.90
2022-08-26T08:50:00.661Z,10.20
2022-08-26T08:51:00.582Z,10.00
2022-08-26T08:52:00.516Z,9.40
2022-08-26T08:53:00.454Z,10.20
2022-08-26T08:54:00.401Z,10.40
2022-08-26T08:55:01.568Z,10.60
2022-08-26T08:56:00.273Z,9.90
2022-08-26T08:57:00.230Z,9.90
2022-08-26T08:58:02.054Z,10.10
2022-08-26T08:59:00.093Z,10.80
2022-08-26T09:00:00.045Z,10.30
2022-08-26T09:01:00.051Z,9.80
2022-08-26T09:01:59.989Z,9.80
2022-08-26T09:02:59.847Z,10.10
2022-08-26T09:03:59.821Z,10.70
2022-08-26T09:04:59.733Z,10.30
2022-08-26T09:05:59.710Z,10.50
2022-08-26T09:06:59.634Z,10.50
2022-08-26T09:07:59.541Z,10.10
2022-08-26T09:08:59.496Z,9.90
2022-08-26T09:09:59.435Z,9.60
2022-08-26T09:10:59.396Z,9.60
2022-08-26T09:11:59.341Z,10.00
2022-08-26T09:12:59.578Z,10.40
2022-08-26T09:14:00.378Z,9.40
2022-08-26T09:14:59.148Z,9.40
2022-08-26T09:15:59.080Z,9.20
2022-08-26T09:16:59.104Z,9.40
2022-08-26T09:17:58.956Z,9.10
2022-08-26T09:18:58.903Z,8.60
2022-08-26T09:19:58.821Z,8.90
2022-08-26T09:20:59.329Z,8.50
2022-08-26T09:21:58.735Z,8.30
2022-08-26T09:22:58.654Z,8.50
2022-08-26T09:23:58.587Z,8.80
2022-08-26T09:25:00.826Z,8.00
2022-08-26T09:25:58.466Z,9.20
2022-08-26T09:26:58.395Z,9.10
2022-08-26T09:27:58.372Z,8.40
2022-08-26T09:28:58.290Z,8.10
2022-08-26T09:29:58.764Z,9.80
2022-08-26T09:30:58.425Z,9.00
2022-08-26T09:31:58.103Z,8.60
2022-08-26T09:32:58.019Z,7.60
2022-08-26T09:33:57.975Z,7.90
2022-08-26T09:34:57.930Z,7.60
2022-08-26T09:35:57.850Z,7.30
2022-08-26T09:37:04.580Z,7.20
2022-08-26T09:37:57.764Z,6.90
2022-08-26T09:38:57.687Z,7.40
2022-08-26T09:39:57.668Z,7.40
2022-08-26T09:40:59.136Z,7.70
2022-08-26T09:41:57.495Z,7.10
2022-08-26T09:42:58.667Z,7.30
2022-08-26T09:43:57.383Z,7.30
2022-08-26T09:44:57.332Z,7.00
2022-08-26T09:45:59.561Z,7.50
2022-08-26T09:46:57.179Z,7.50
2022-08-26T09:47:57.121Z,7.00
2022-08-26T09:48:57.076Z,7.20
2022-08-26T09:49:57.031Z,7.50
2022-08-26T09:50:56.991Z,7.10
2022-08-26T09:51:57.469Z,6.80
2022-08-26T09:52:56.851Z,7.10
2022-08-26T09:53:56.796Z,7.10
2022-08-26T09:54:57.915Z,7.80
2022-08-26T09:55:56.675Z,7.70
2022-08-26T09:56:56.598Z,8.30
2022-08-26T09:57:58.204Z,7.60
2022-08-26T09:58:56.492Z,7.80
2022-08-26T09:59:56.402Z,7.30
2022-08-26T10:00:57.592Z,6.70
2022-08-26T10:01:56.378Z,7.50
2022-08-26T10:02:58.140Z,7.30
2022-08-26T10:03:56.247Z,7.40
2022-08-26T10:04:56.092Z,7.20
2022-08-26T10:05:56.057Z,6.80
2022-08-26T10:06:56.018Z,7.70
2022-08-26T10:07:55.917Z,7.60
2022-08-26T10:08:55.884Z,7.10
2022-08-26T10:09:55.819Z,7.00
2022-08-26T10:10:55.735Z,7.60
2022-08-26T10:11:55.693Z,7.30
2022-08-26T10:12:55.639Z,7.10
2022-08-26T10:13:55.604Z,8.20
2022-08-26T10:14:55.546Z,7.30
2022-08-26T10:15:55.437Z,7.10
2022-08-26T10:16:55.441Z,7.70
2022-08-26T10:17:55.327Z,7.90
2022-08-26T10:18:59.926Z,7.60
2022-08-26T10:19:57.148Z,7.90
2022-08-26T10:20:57.777Z,7.00
2022-08-26T10:21:55.072Z,7.50
2022-08-26T10:22:55.056Z,7.70
2022-08-26T10:23:55.032Z,7.70
2022-08-26T10:24:55.312Z,7.40
2022-08-26T10:25:57.991Z,8.00
2022-08-26T10:26:54.790Z,6.90
2022-08-26T10:27:54.760Z,7.40
2022-08-26T10:28:54.685Z,7.90
2022-08-26T10:29:54.608Z,7.80
2022-08-26T10:30:56.524Z,7.10
2022-08-26T10:31:54.569Z,7.50
2022-08-26T10:32:54.442Z,8.00
2022-08-26T10:33:58.650Z,7.60
2022-08-26T10:34:55.019Z,7.90
2022-08-26T10:35:54.252Z,8.00
2022-08-26T10:37:14.896Z,7.50
2022-08-26T10:37:54.133Z,7.00
2022-08-26T10:38:54.077Z,7.90
2022-08-26T10:39:57.113Z,7.90
2022-08-26T10:40:53.955Z,7.40
2022-08-26T10:41:53.876Z,8.20
2022-08-26T10:42:53.831Z,6.90
2022-08-26T10:43:53.765Z,7.50
2022-08-26T10:44:53.715Z,8.20
2022-08-26T10:45:53.711Z,7.80
2022-08-26T10:46:53.600Z,8.00
2022-08-26T10:47:53.510Z,7.90
2022-08-26T10:48:53.493Z,7.80
2022-08-26T10:49:55.572Z,8.20
2022-08-26T10:50:53.348Z,7.60
2022-08-26T10:51:53.279Z,8.20
2022-08-26T10:52:53.211Z,8.00
2022-08-26T10:53:53.165Z,7.60
2022-08-26T10:54:54.359Z,7.30
2022-08-26T10:55:53.045Z,7.40
2022-08-26T10:56:52.967Z,7.60
2022-08-26T10:57:52.933Z,7.20
2022-08-26T10:58:52.867Z,7.40
2022-08-26T10:59:52.808Z,7.60
2022-08-26T11:00:52.883Z,7.10
2022-08-26T11:01:52.801Z,8.30
2022-08-26T11:02:52.618Z,7.30
2022-08-26T11:03:52.609Z,7.80
2022-08-26T11:04:52.552Z,7.40
2022-08-26T11:05:52.467Z,7.30
2022-08-26T11:06:52.425Z,6.80
2022-08-26T11:07:52.370Z,8.20
2022-08-26T11:08:52.258Z,8.20
2022-08-26T11:09:52.180Z,8.20
2022-08-26T11:10:52.117Z,7.60
2022-08-26T11:11:52.078Z,7.50
2022-08-26T11:12:52.025Z,7.90
2022-08-26T11:13:51.941Z,7.80
2022-08-26T11:14:58.470Z,7.60
2022-08-26T11:15:51.840Z,7.50
2022-08-26T11:16:51.935Z,7.90
2022-08-26T11:17:51.716Z,7.20
2022-08-26T11:18:52.696Z,7.20
2022-08-26T11:20:00.673Z,7.40
2022-08-26T11:20:51.902Z,7.00
2022-08-26T11:21:51.468Z,7.50
2022-08-26T11:22:51.420Z,7.60
2022-08-26T11:23:52.953Z,7.50
2022-08-26T11:24:51.555Z,7.40
2022-08-26T11:25:51.214Z,7.50
2022-08-26T11:26:55.427Z,6.80
2022-08-26T11:27:51.118Z,7.10
2022-08-26T11:28:51.206Z,7.00
2022-08-26T11:29:51.009Z,6.90
2022-08-26T11:30:57.490Z,6.50
2022-08-26T11:31:50.982Z,7.10
2022-08-26T11:32:50.814Z,6.70
2022-08-26T11:33:51.087Z,6.70
2022-08-26T11:34:50.681Z,6.40
2022-08-26T11:35:50.606Z,6.10
2022-08-26T11:36:50.585Z,7.10
2022-08-26T11:37:50.514Z,6.20
2022-08-26T11:38:50.445Z,6.10
2022-08-26T11:39:53.971Z,5.70
2022-08-26T11:40:50.308Z,5.80
2022-08-26T11:41:52.689Z,5.80
2022-08-26T11:42:50.981Z,6.20
2022-08-26T11:43:50.129Z,6.00
2022-08-26T11:44:50.096Z,6.50
2022-08-26T11:45:50.060Z,6.10
2022-08-26T11:46:49.946Z,6.00
2022-08-26T11:47:50.013Z,6.50
2022-08-26T11:48:49.827Z,6.30
2022-08-26T11:49:49.747Z,6.40
2022-08-26T11:50:49.760Z,6.60
2022-08-26T11:51:49.661Z,7.00
2022-08-26T11:52:49.582Z,7.30
2022-08-26T11:53:49.532Z,7.00
2022-08-26T11:54:49.449Z,7.20
2022-08-26T11:55:49.402Z,7.30
2022-08-26T11:56:49.312Z,7.00
2022-08-26T11:57:49.291Z,7.40
2022-08-26T11:58:49.226Z,6.80
2022-08-26T11:59:49.152Z,7.20
2022-08-26T12:00:49.128Z,7.20
2022-08-26T12:01:50.533Z,7.10
2022-08-26T12:02:49.003Z,6.80
2022-08-26T12:03:49.086Z,6.30
2022-08-26T12:04:48.904Z,8.10
2022-08-26T12:05:48.849Z,7.40
2022-08-26T12:06:48.732Z,7.50
2022-08-26T12:07:48.690Z,7.80
2022-08-26T12:08:48.647Z,8.00
2022-08-26T12:09:48.560Z,8.30
2022-08-26T12:10:48.498Z,7.80
2022-08-26T12:11:48.428Z,7.30
2022-08-26T12:12:49.584Z,7.60
2022-08-26T12:13:48.319Z,7.70
2022-08-26T12:14:48.232Z,7.50
2022-08-26T12:15:48.203Z,7.90
2022-08-26T12:16:48.159Z,7.60
2022-08-26T12:17:52.945Z,7.80
2022-08-26T12:18:48.005Z,7.60
2022-08-26T12:19:47.923Z,7.50
2022-08-26T12:20:47.872Z,7.50
2022-08-26T12:21:47.795Z,7.20
2022-08-26T12:22:48.255Z,7.40
2022-08-26T12:23:47.699Z,8.50
2022-08-26T12:24:47.634Z,8.40
2022-08-26T12:25:47.559Z,7.90
2022-08-26T12:26:47.498Z,8.20
2022-08-26T12:27:50.621Z,7.90
2022-08-26T12:28:47.392Z,7.60
2022-08-26T12:29:48.441Z,7.50
2022-08-26T12:30:48.586Z,8.70
2022-08-26T12:31:47.248Z,7.50
2022-08-26T12:32:57.388Z,8.00
2022-08-26T12:33:47.086Z,8.10
2022-08-26T12:34:46.997Z,7.40
2022-08-26T12:35:48.475Z,7.90
2022-08-26T12:36:46.939Z,7.20
2022-08-26T12:37:46.831Z,8.00
2022-08-26T12:38:46.766Z,7.10
2022-08-26T12:39:46.732Z,7.30
2022-08-26T12:40:46.637Z,7.80
2022-08-26T12:41:46.573Z,7.30
2022-08-26T12:42:48.064Z,7.10
2022-08-26T12:43:46.455Z,8.00
2022-08-26T12:44:53.001Z,8.50
2022-08-26T12:45:46.379Z,7.80
2022-08-26T12:46:49.742Z,7.70
2022-08-26T12:47:46.239Z,7.90
2022-08-26T12:48:46.166Z,7.40
2022-08-26T12:49:46.093Z,7.70
2022-08-26T12:50:46.022Z,7.30
2022-08-26T12:51:45.968Z,7.50
2022-08-26T12:52:45.935Z,8.30
2022-08-26T12:53:45.844Z,8.20
2022-08-26T12:54:47.323Z,7.00
2022-08-26T12:55:45.724Z,7.40
2022-08-26T12:56:45.648Z,7.60
2022-08-26T12:57:45.590Z,7.90
2022-08-26T12:58:45.584Z,8.00
2022-08-26T12:59:45.482Z,8.00